sensor_id;sensor_type;location;lat;lon;timestamp;P1;durP1;ratioP1;P2;durP2;ratioP2
13959;SDS011;7052;51.050;3.716;2023-02-01T00:00:19;15.50;;;5.37;;
13959;SDS011;7052;51.050;3.716;2023-02-01T00:02:46;15.63;;;5.27;;
13959;SDS011;7052;51.050;3.716;2023-02-01T00:05:14;13.47;;;4.73;;
13959;SDS011;7052;51.050;3.716;2023-02-01T00:07:41;17.70;;;5.97;;
13959;SDS011;7052;51.050;3.716;2023-02-01T00:10:09;13.77;;;4.87;;
13959;SDS011;7052;51.050;3.716;2023-02-01T00:12:37;14.53;;;5.33;;
13959;SDS011;7052;51.050;3.716;2023-02-01T00:15:04;14.20;;;5.17;;
13959;SDS011;7052;51.050;3.716;2023-02-01T00:17:33;12.30;;;5.23;;
13959;SDS011;7052;51.050;3.716;2023-02-01T00:20:02;14.70;;;5.13;;
13959;SDS011;7052;51.050;3.716;2023-02-01T00:22:30;13.93;;;5.13;;
13959;SDS011;7052;51.050;3.716;2023-02-01T00:25:00;15.47;;;4.90;;
13959;SDS011;7052;51.050;3.716;2023-02-01T00:27:27;18.37;;;5.17;;
13959;SDS011;7052;51.050;3.716;2023-02-01T00:29:54;15.97;;;5.20;;
13959;SDS011;7052;51.050;3.716;2023-02-01T00:32:22;15.43;;;4.93;;
13959;SDS011;7052;51.050;3.716;2023-02-01T00:34:51;15.57;;;4.63;;
13959;SDS011;7052;51.050;3.716;2023-02-01T00:37:18;13.73;;;4.77;;
13959;SDS011;7052;51.050;3.716;2023-02-01T00:39:46;15.57;;;5.00;;
13959;SDS011;7052;51.050;3.716;2023-02-01T00:42:15;16.97;;;5.20;;
13959;SDS011;7052;51.050;3.716;2023-02-01T00:44:42;10.23;;;4.50;;
13959;SDS011;7052;51.050;3.716;2023-02-01T00:47:09;12.93;;;5.00;;
13959;SDS011;7052;51.050;3.716;2023-02-01T00:49:36;13.80;;;4.77;;
13959;SDS011;7052;51.050;3.716;2023-02-01T00:52:05;11.43;;;3.93;;
13959;SDS011;7052;51.050;3.716;2023-02-01T00:54:33;19.43;;;5.10;;
13959;SDS011;7052;51.050;3.716;2023-02-01T00:57:02;15.40;;;5.10;;
13959;SDS011;7052;51.050;3.716;2023-02-01T00:59:29;13.70;;;5.23;;
13959;SDS011;7052;51.050;3.716;2023-02-01T01:01:58;12.63;;;3.90;;
13959;SDS011;7052;51.050;3.716;2023-02-01T01:04:26;12.40;;;4.90;;
13959;SDS011;7052;51.050;3.716;2023-02-01T01:06:53;10.63;;;4.37;;
13959;SDS011;7052;51.050;3.716;2023-02-01T01:09:22;15.33;;;4.07;;
13959;SDS011;7052;51.050;3.716;2023-02-01T01:11:49;14.57;;;4.23;;
13959;SDS011;7052;51.050;3.716;2023-02-01T01:14:17;16.97;;;4.90;;
13959;SDS011;7052;51.050;3.716;2023-02-01T01:16:48;14.77;;;4.73;;
13959;SDS011;7052;51.050;3.716;2023-02-01T01:19:16;13.50;;;4.60;;
13959;SDS011;7052;51.050;3.716;2023-02-01T01:21:46;11.93;;;4.10;;
13959;SDS011;7052;51.050;3.716;2023-02-01T01:24:13;21.10;;;5.00;;
13959;SDS011;7052;51.050;3.716;2023-02-01T01:26:44;13.37;;;4.70;;
13959;SDS011;7052;51.050;3.716;2023-02-01T01:29:13;11.87;;;3.90;;
13959;SDS011;7052;51.050;3.716;2023-02-01T01:31:39;16.40;;;4.30;;
13959;SDS011;7052;51.050;3.716;2023-02-01T01:34:07;12.80;;;4.50;;
13959;SDS011;7052;51.050;3.716;2023-02-01T01:36:35;13.33;;;4.23;;
13959;SDS011;7052;51.050;3.716;2023-02-01T01:39:03;9.47;;;3.97;;
13959;SDS011;7052;51.050;3.716;2023-02-01T01:41:31;15.60;;;4.43;;
13959;SDS011;7052;51.050;3.716;2023-02-01T01:44:01;15.17;;;4.10;;
13959;SDS011;7052;51.050;3.716;2023-02-01T01:46:30;17.13;;;4.20;;
13959;SDS011;7052;51.050;3.716;2023-02-01T01:49:00;16.83;;;4.10;;
13959;SDS011;7052;51.050;3.716;2023-02-01T01:51:31;12.10;;;4.60;;
13959;SDS011;7052;51.050;3.716;2023-02-01T01:54:03;11.77;;;4.33;;
13959;SDS011;7052;51.050;3.716;2023-02-01T01:56:35;10.70;;;4.00;;
13959;SDS011;7052;51.050;3.716;2023-02-01T01:59:03;16.77;;;4.40;;
13959;SDS011;7052;51.050;3.716;2023-02-01T02:01:31;13.03;;;4.10;;
13959;SDS011;7052;51.050;3.716;2023-02-01T02:03:59;15.50;;;4.57;;
13959;SDS011;7052;51.050;3.716;2023-02-01T02:06:30;17.80;;;4.80;;
13959;SDS011;7052;51.050;3.716;2023-02-01T02:09:03;12.30;;;4.73;;
13959;SDS011;7052;51.050;3.716;2023-02-01T02:11:31;12.10;;;4.40;;
13959;SDS011;7052;51.050;3.716;2023-02-01T02:13:57;16.30;;;5.43;;
13959;SDS011;7052;51.050;3.716;2023-02-01T02:22:52;13.07;;;4.80;;
13959;SDS011;7052;51.050;3.716;2023-02-01T02:25:53;13.10;;;4.70;;
13959;SDS011;7052;51.050;3.716;2023-02-01T02:32:03;10.93;;;4.50;;
13959;SDS011;7052;51.050;3.716;2023-02-01T02:35:02;10.33;;;4.40;;
13959;SDS011;7052;51.050;3.716;2023-02-01T02:37:40;12.30;;;4.33;;
13959;SDS011;7052;51.050;3.716;2023-02-01T02:40:14;12.03;;;4.27;;
13959;SDS011;7052;51.050;3.716;2023-02-01T02:42:47;12.50;;;3.57;;
13959;SDS011;7052;51.050;3.716;2023-02-01T02:45:41;14.13;;;4.70;;
13959;SDS011;7052;51.050;3.716;2023-02-01T02:48:29;14.13;;;4.83;;
13959;SDS011;7052;51.050;3.716;2023-02-01T02:51:05;9.07;;;3.67;;
13959;SDS011;7052;51.050;3.716;2023-02-01T02:53:56;12.93;;;4.10;;
13959;SDS011;7052;51.050;3.716;2023-02-01T02:56:44;17.97;;;4.60;;
13959;SDS011;7052;51.050;3.716;2023-02-01T02:59:29;15.87;;;4.63;;
13959;SDS011;7052;51.050;3.716;2023-02-01T03:02:16;13.37;;;5.20;;
13959;SDS011;7052;51.050;3.716;2023-02-01T03:05:02;15.67;;;4.60;;
13959;SDS011;7052;51.050;3.716;2023-02-01T03:10:42;22.13;;;5.33;;
13959;SDS011;7052;51.050;3.716;2023-02-01T03:13:20;13.70;;;4.73;;
13959;SDS011;7052;51.050;3.716;2023-02-01T03:15:59;13.83;;;3.70;;
13959;SDS011;7052;51.050;3.716;2023-02-01T03:18:32;13.20;;;4.30;;
13959;SDS011;7052;51.050;3.716;2023-02-01T03:21:05;11.50;;;4.53;;
13959;SDS011;7052;51.050;3.716;2023-02-01T03:23:37;15.97;;;4.67;;
13959;SDS011;7052;51.050;3.716;2023-02-01T03:26:07;15.57;;;4.93;;
13959;SDS011;7052;51.050;3.716;2023-02-01T03:28:37;14.27;;;4.30;;
13959;SDS011;7052;51.050;3.716;2023-02-01T03:31:12;15.73;;;4.47;;
13959;SDS011;7052;51.050;3.716;2023-02-01T03:33:39;14.40;;;4.70;;
13959;SDS011;7052;51.050;3.716;2023-02-01T03:36:10;20.30;;;4.90;;
13959;SDS011;7052;51.050;3.716;2023-02-01T03:38:48;12.37;;;3.73;;
13959;SDS011;7052;51.050;3.716;2023-02-01T03:41:23;11.67;;;3.70;;
13959;SDS011;7052;51.050;3.716;2023-02-01T03:43:58;15.53;;;4.63;;
13959;SDS011;7052;51.050;3.716;2023-02-01T03:46:31;20.50;;;4.97;;
13959;SDS011;7052;51.050;3.716;2023-02-01T03:49:03;16.27;;;4.50;;
13959;SDS011;7052;51.050;3.716;2023-02-01T03:51:32;21.33;;;4.80;;
13959;SDS011;7052;51.050;3.716;2023-02-01T03:54:10;12.57;;;4.23;;
13959;SDS011;7052;51.050;3.716;2023-02-01T03:56:40;13.73;;;3.80;;
13959;SDS011;7052;51.050;3.716;2023-02-01T03:59:13;14.83;;;4.77;;
13959;SDS011;7052;51.050;3.716;2023-02-01T04:01:41;17.23;;;5.20;;
13959;SDS011;7052;51.050;3.716;2023-02-01T04:04:08;20.43;;;4.53;;
13959;SDS011;7052;51.050;3.716;2023-02-01T04:06:36;14.60;;;4.70;;
13959;SDS011;7052;51.050;3.716;2023-02-01T04:09:03;12.93;;;4.23;;
13959;SDS011;7052;51.050;3.716;2023-02-01T04:11:32;14.17;;;5.10;;
13959;SDS011;7052;51.050;3.716;2023-02-01T04:13:59;15.23;;;4.80;;
13959;SDS011;7052;51.050;3.716;2023-02-01T04:16:29;16.50;;;4.40;;
13959;SDS011;7052;51.050;3.716;2023-02-01T04:18:57;14.53;;;4.90;;
13959;SDS011;7052;51.050;3.716;2023-02-01T04:21:24;14.70;;;4.83;;
13959;SDS011;7052;51.050;3.716;2023-02-01T04:23:57;16.57;;;4.70;;
13959;SDS011;7052;51.050;3.716;2023-02-01T04:26:24;17.40;;;5.27;;
13959;SDS011;7052;51.050;3.716;2023-02-01T04:28:53;17.57;;;5.00;;
13959;SDS011;7052;51.050;3.716;2023-02-01T04:31:22;17.27;;;5.10;;
13959;SDS011;7052;51.050;3.716;2023-02-01T04:33:52;13.53;;;4.30;;
13959;SDS011;7052;51.050;3.716;2023-02-01T04:36:20;17.07;;;4.57;;
13959;SDS011;7052;51.050;3.716;2023-02-01T04:38:48;16.30;;;4.57;;
13959;SDS011;7052;51.050;3.716;2023-02-01T04:41:15;16.00;;;4.37;;
13959;SDS011;7052;51.050;3.716;2023-02-01T04:43:48;16.47;;;4.30;;
13959;SDS011;7052;51.050;3.716;2023-02-01T04:46:18;13.63;;;4.10;;
13959;SDS011;7052;51.050;3.716;2023-02-01T04:48:45;16.07;;;4.13;;
13959;SDS011;7052;51.050;3.716;2023-02-01T04:51:12;17.80;;;4.70;;
13959;SDS011;7052;51.050;3.716;2023-02-01T04:53:40;15.40;;;4.73;;
13959;SDS011;7052;51.050;3.716;2023-02-01T04:56:09;12.13;;;4.30;;
13959;SDS011;7052;51.050;3.716;2023-02-01T04:58:36;17.43;;;4.70;;
13959;SDS011;7052;51.050;3.716;2023-02-01T05:01:03;18.77;;;4.90;;
13959;SDS011;7052;51.050;3.716;2023-02-01T05:03:32;15.67;;;4.37;;
13959;SDS011;7052;51.050;3.716;2023-02-01T05:06:04;15.47;;;4.30;;
13959;SDS011;7052;51.050;3.716;2023-02-01T05:08:32;15.03;;;3.93;;
13959;SDS011;7052;51.050;3.716;2023-02-01T05:11:01;14.77;;;4.37;;
13959;SDS011;7052;51.050;3.716;2023-02-01T05:13:28;13.33;;;3.97;;
13959;SDS011;7052;51.050;3.716;2023-02-01T05:16:12;14.97;;;4.30;;
13959;SDS011;7052;51.050;3.716;2023-02-01T05:18:48;16.87;;;4.47;;
13959;SDS011;7052;51.050;3.716;2023-02-01T05:21:18;16.27;;;4.40;;
13959;SDS011;7052;51.050;3.716;2023-02-01T05:23:48;16.33;;;4.37;;
13959;SDS011;7052;51.050;3.716;2023-02-01T05:26:32;23.00;;;5.40;;
13959;SDS011;7052;51.050;3.716;2023-02-01T05:29:01;16.20;;;5.00;;
13959;SDS011;7052;51.050;3.716;2023-02-01T05:31:31;14.93;;;4.20;;
13959;SDS011;7052;51.050;3.716;2023-02-01T05:34:00;16.47;;;5.00;;
13959;SDS011;7052;51.050;3.716;2023-02-01T05:36:27;32.60;;;14.20;;
13959;SDS011;7052;51.050;3.716;2023-02-01T05:39:01;23.03;;;9.57;;
13959;SDS011;7052;51.050;3.716;2023-02-01T05:41:28;18.30;;;6.50;;
13959;SDS011;7052;51.050;3.716;2023-02-01T05:43:55;16.67;;;5.70;;
13959;SDS011;7052;51.050;3.716;2023-02-01T05:46:22;16.27;;;4.77;;
13959;SDS011;7052;51.050;3.716;2023-02-01T05:48:54;18.10;;;4.83;;
13959;SDS011;7052;51.050;3.716;2023-02-01T05:51:22;15.47;;;4.90;;
13959;SDS011;7052;51.050;3.716;2023-02-01T05:53:49;17.42;;;5.28;;
13959;SDS011;7052;51.050;3.716;2023-02-01T05:56:16;12.60;;;4.23;;
13959;SDS011;7052;51.050;3.716;2023-02-01T05:58:43;18.20;;;5.00;;
13959;SDS011;7052;51.050;3.716;2023-02-01T06:01:11;14.00;;;4.80;;
13959;SDS011;7052;51.050;3.716;2023-02-01T06:03:38;15.33;;;4.10;;
13959;SDS011;7052;51.050;3.716;2023-02-01T06:06:05;19.20;;;4.90;;
13959;SDS011;7052;51.050;3.716;2023-02-01T06:08:41;12.50;;;5.13;;
13959;SDS011;7052;51.050;3.716;2023-02-01T06:11:08;15.03;;;5.13;;
13959;SDS011;7052;51.050;3.716;2023-02-01T06:13:35;17.47;;;5.07;;
13959;SDS011;7052;51.050;3.716;2023-02-01T06:16:04;17.80;;;5.03;;
13959;SDS011;7052;51.050;3.716;2023-02-01T06:18:32;17.92;;;5.68;;
13959;SDS011;7052;51.050;3.716;2023-02-01T06:21:00;15.30;;;5.03;;
13959;SDS011;7052;51.050;3.716;2023-02-01T06:23:28;17.30;;;4.83;;
13959;SDS011;7052;51.050;3.716;2023-02-01T06:26:02;14.97;;;5.07;;
13959;SDS011;7052;51.050;3.716;2023-02-01T06:28:30;13.97;;;4.50;;
13959;SDS011;7052;51.050;3.716;2023-02-01T06:31:02;17.03;;;5.00;;
13959;SDS011;7052;51.050;3.716;2023-02-01T06:33:31;14.60;;;4.20;;
13959;SDS011;7052;51.050;3.716;2023-02-01T06:36:02;15.80;;;4.93;;
13959;SDS011;7052;51.050;3.716;2023-02-01T06:38:31;22.53;;;7.80;;
13959;SDS011;7052;51.050;3.716;2023-02-01T06:41:05;12.80;;;4.77;;
13959;SDS011;7052;51.050;3.716;2023-02-01T06:43:32;13.60;;;4.70;;
13959;SDS011;7052;51.050;3.716;2023-02-01T06:46:02;13.57;;;4.40;;
13959;SDS011;7052;51.050;3.716;2023-02-01T06:48:33;13.10;;;4.23;;
13959;SDS011;7052;51.050;3.716;2023-02-01T06:51:01;15.97;;;4.40;;
13959;SDS011;7052;51.050;3.716;2023-02-01T06:53:28;20.03;;;4.37;;
13959;SDS011;7052;51.050;3.716;2023-02-01T06:55:56;13.67;;;5.10;;
13959;SDS011;7052;51.050;3.716;2023-02-01T06:58:27;10.77;;;4.17;;
13959;SDS011;7052;51.050;3.716;2023-02-01T07:00:55;14.07;;;4.40;;
13959;SDS011;7052;51.050;3.716;2023-02-01T07:03:22;19.87;;;4.33;;
13959;SDS011;7052;51.050;3.716;2023-02-01T07:05:54;14.77;;;4.67;;
13959;SDS011;7052;51.050;3.716;2023-02-01T07:08:24;23.03;;;4.87;;
13959;SDS011;7052;51.050;3.716;2023-02-01T07:10:53;17.73;;;5.00;;
13959;SDS011;7052;51.050;3.716;2023-02-01T07:13:22;17.97;;;4.83;;
13959;SDS011;7052;51.050;3.716;2023-02-01T07:15:51;13.07;;;3.90;;
13959;SDS011;7052;51.050;3.716;2023-02-01T07:18:23;18.87;;;4.27;;
13959;SDS011;7052;51.050;3.716;2023-02-01T07:20:50;20.93;;;5.40;;
13959;SDS011;7052;51.050;3.716;2023-02-01T07:23:17;19.20;;;4.93;;
13959;SDS011;7052;51.050;3.716;2023-02-01T07:25:53;16.20;;;4.23;;
13959;SDS011;7052;51.050;3.716;2023-02-01T07:28:21;22.30;;;4.80;;
13959;SDS011;7052;51.050;3.716;2023-02-01T07:30:51;14.97;;;4.97;;
13959;SDS011;7052;51.050;3.716;2023-02-01T07:33:19;16.07;;;4.20;;
13959;SDS011;7052;51.050;3.716;2023-02-01T07:35:47;14.70;;;4.40;;
13959;SDS011;7052;51.050;3.716;2023-02-01T07:38:14;17.17;;;4.83;;
13959;SDS011;7052;51.050;3.716;2023-02-01T07:40:42;17.50;;;4.90;;
13959;SDS011;7052;51.050;3.716;2023-02-01T07:43:11;14.90;;;4.67;;
13959;SDS011;7052;51.050;3.716;2023-02-01T07:45:38;23.63;;;5.30;;
13959;SDS011;7052;51.050;3.716;2023-02-01T07:48:08;18.07;;;4.97;;
13959;SDS011;7052;51.050;3.716;2023-02-01T07:50:35;16.00;;;4.83;;
13959;SDS011;7052;51.050;3.716;2023-02-01T07:53:05;18.67;;;5.03;;
13959;SDS011;7052;51.050;3.716;2023-02-01T07:55:32;16.30;;;4.83;;
13959;SDS011;7052;51.050;3.716;2023-02-01T07:57:59;13.40;;;4.57;;
13959;SDS011;7052;51.050;3.716;2023-02-01T08:00:26;16.20;;;4.97;;
13959;SDS011;7052;51.050;3.716;2023-02-01T08:03:12;13.37;;;5.13;;
13959;SDS011;7052;51.050;3.716;2023-02-01T08:05:39;14.63;;;4.63;;
13959;SDS011;7052;51.050;3.716;2023-02-01T08:08:06;11.07;;;4.43;;
13959;SDS011;7052;51.050;3.716;2023-02-01T08:10:33;17.07;;;4.53;;
13959;SDS011;7052;51.050;3.716;2023-02-01T08:13:01;17.70;;;4.77;;
13959;SDS011;7052;51.050;3.716;2023-02-01T08:15:28;15.43;;;5.57;;
13959;SDS011;7052;51.050;3.716;2023-02-01T08:17:56;12.03;;;4.83;;
13959;SDS011;7052;51.050;3.716;2023-02-01T08:20:25;13.23;;;4.57;;
13959;SDS011;7052;51.050;3.716;2023-02-01T08:23:02;14.70;;;4.87;;
13959;SDS011;7052;51.050;3.716;2023-02-01T08:25:33;20.83;;;5.30;;
13959;SDS011;7052;51.050;3.716;2023-02-01T08:28:04;16.03;;;4.73;;
13959;SDS011;7052;51.050;3.716;2023-02-01T08:30:35;13.07;;;4.17;;
13959;SDS011;7052;51.050;3.716;2023-02-01T08:33:04;13.13;;;4.80;;
13959;SDS011;7052;51.050;3.716;2023-02-01T08:35:33;13.97;;;4.30;;
13959;SDS011;7052;51.050;3.716;2023-02-01T08:38:01;15.33;;;5.23;;
13959;SDS011;7052;51.050;3.716;2023-02-01T08:40:29;23.27;;;5.87;;
13959;SDS011;7052;51.050;3.716;2023-02-01T08:42:56;14.60;;;4.67;;
13959;SDS011;7052;51.050;3.716;2023-02-01T08:45:26;17.13;;;4.87;;
13959;SDS011;7052;51.050;3.716;2023-02-01T08:47:54;10.17;;;3.77;;
13959;SDS011;7052;51.050;3.716;2023-02-01T08:50:21;15.00;;;4.23;;
13959;SDS011;7052;51.050;3.716;2023-02-01T08:52:53;13.87;;;4.57;;
13959;SDS011;7052;51.050;3.716;2023-02-01T08:55:24;19.90;;;4.50;;
13959;SDS011;7052;51.050;3.716;2023-02-01T08:57:51;16.93;;;4.33;;
13959;SDS011;7052;51.050;3.716;2023-02-01T09:00:18;19.83;;;5.43;;
13959;SDS011;7052;51.050;3.716;2023-02-01T09:02:46;16.23;;;3.93;;
13959;SDS011;7052;51.050;3.716;2023-02-01T09:05:15;11.47;;;3.90;;
13959;SDS011;7052;51.050;3.716;2023-02-01T09:07:47;13.73;;;4.47;;
13959;SDS011;7052;51.050;3.716;2023-02-01T09:10:15;16.43;;;4.73;;
13959;SDS011;7052;51.050;3.716;2023-02-01T09:12:42;13.07;;;3.93;;
13959;SDS011;7052;51.050;3.716;2023-02-01T09:15:10;15.83;;;4.50;;
13959;SDS011;7052;51.050;3.716;2023-02-01T09:17:37;16.00;;;4.70;;
13959;SDS011;7052;51.050;3.716;2023-02-01T09:20:07;19.77;;;4.73;;
13959;SDS011;7052;51.050;3.716;2023-02-01T09:22:36;11.13;;;3.93;;
13959;SDS011;7052;51.050;3.716;2023-02-01T09:25:03;21.50;;;4.90;;
13959;SDS011;7052;51.050;3.716;2023-02-01T09:27:32;15.77;;;4.43;;
13959;SDS011;7052;51.050;3.716;2023-02-01T09:29:59;18.00;;;4.77;;
13959;SDS011;7052;51.050;3.716;2023-02-01T09:32:26;15.93;;;4.37;;
13959;SDS011;7052;51.050;3.716;2023-02-01T09:34:53;17.53;;;4.93;;
13959;SDS011;7052;51.050;3.716;2023-02-01T09:37:22;25.07;;;5.27;;
13959;SDS011;7052;51.050;3.716;2023-02-01T09:39:50;16.37;;;3.87;;
13959;SDS011;7052;51.050;3.716;2023-02-01T09:42:30;15.43;;;3.57;;
13959;SDS011;7052;51.050;3.716;2023-02-01T09:45:20;14.50;;;3.80;;
13959;SDS011;7052;51.050;3.716;2023-02-01T09:47:55;15.43;;;4.07;;
13959;SDS011;7052;51.050;3.716;2023-02-01T09:50:32;14.57;;;4.40;;
13959;SDS011;7052;51.050;3.716;2023-02-01T09:53:04;15.03;;;4.70;;
13959;SDS011;7052;51.050;3.716;2023-02-01T09:55:33;17.13;;;4.47;;
13959;SDS011;7052;51.050;3.716;2023-02-01T09:58:05;13.27;;;3.60;;
13959;SDS011;7052;51.050;3.716;2023-02-01T10:00:38;14.70;;;4.13;;
13959;SDS011;7052;51.050;3.716;2023-02-01T10:03:12;11.33;;;4.00;;
13959;SDS011;7052;51.050;3.716;2023-02-01T10:05:53;18.03;;;4.33;;
13959;SDS011;7052;51.050;3.716;2023-02-01T10:08:33;17.90;;;4.60;;
13959;SDS011;7052;51.050;3.716;2023-02-01T10:11:20;12.67;;;3.67;;
13959;SDS011;7052;51.050;3.716;2023-02-01T10:14:00;15.17;;;4.37;;
13959;SDS011;7052;51.050;3.716;2023-02-01T10:16:37;13.80;;;3.67;;
13959;SDS011;7052;51.050;3.716;2023-02-01T10:19:18;11.87;;;3.47;;
13959;SDS011;7052;51.050;3.716;2023-02-01T10:21:58;14.67;;;4.07;;
13959;SDS011;7052;51.050;3.716;2023-02-01T10:24:40;13.13;;;4.30;;
13959;SDS011;7052;51.050;3.716;2023-02-01T10:27:13;21.97;;;4.83;;
13959;SDS011;7052;51.050;3.716;2023-02-01T10:29:46;17.53;;;4.00;;
13959;SDS011;7052;51.050;3.716;2023-02-01T10:32:19;17.20;;;4.23;;
13959;SDS011;7052;51.050;3.716;2023-02-01T10:34:52;12.73;;;4.60;;
13959;SDS011;7052;51.050;3.716;2023-02-01T10:37:25;14.83;;;3.27;;
13959;SDS011;7052;51.050;3.716;2023-02-01T10:39:58;15.37;;;3.90;;
13959;SDS011;7052;51.050;3.716;2023-02-01T10:42:27;13.87;;;4.00;;
13959;SDS011;7052;51.050;3.716;2023-02-01T10:45:12;20.57;;;4.60;;
13959;SDS011;7052;51.050;3.716;2023-02-01T10:47:43;7.33;;;2.90;;
13959;SDS011;7052;51.050;3.716;2023-02-01T10:50:16;15.23;;;4.13;;
13959;SDS011;7052;51.050;3.716;2023-02-01T10:52:52;15.17;;;3.60;;
13959;SDS011;7052;51.050;3.716;2023-02-01T10:55:27;8.67;;;3.10;;
13959;SDS011;7052;51.050;3.716;2023-02-01T10:57:59;11.83;;;2.97;;
13959;SDS011;7052;51.050;3.716;2023-02-01T11:00:29;13.00;;;3.27;;
13959;SDS011;7052;51.050;3.716;2023-02-01T11:06:09;10.35;;;3.22;;
13959;SDS011;7052;51.050;3.716;2023-02-01T11:08:51;9.73;;;3.00;;
13959;SDS011;7052;51.050;3.716;2023-02-01T11:11:19;11.67;;;3.60;;
13959;SDS011;7052;51.050;3.716;2023-02-01T11:13:51;8.03;;;2.33;;
13959;SDS011;7052;51.050;3.716;2023-02-01T11:16:33;13.20;;;3.27;;
13959;SDS011;7052;51.050;3.716;2023-02-01T11:19:01;8.03;;;2.90;;
13959;SDS011;7052;51.050;3.716;2023-02-01T11:21:29;14.57;;;3.90;;
13959;SDS011;7052;51.050;3.716;2023-02-01T11:24:00;10.20;;;3.73;;
13959;SDS011;7052;51.050;3.716;2023-02-01T11:26:31;11.50;;;3.00;;
13959;SDS011;7052;51.050;3.716;2023-02-01T11:29:02;11.07;;;3.20;;
13959;SDS011;7052;51.050;3.716;2023-02-01T11:31:34;10.80;;;3.17;;
13959;SDS011;7052;51.050;3.716;2023-02-01T11:34:15;13.07;;;3.57;;
13959;SDS011;7052;51.050;3.716;2023-02-01T11:36:45;8.33;;;2.60;;
13959;SDS011;7052;51.050;3.716;2023-02-01T11:39:23;15.20;;;3.97;;
13959;SDS011;7052;51.050;3.716;2023-02-01T11:41:56;12.20;;;3.27;;
13959;SDS011;7052;51.050;3.716;2023-02-01T11:44:30;16.07;;;3.93;;
13959;SDS011;7052;51.050;3.716;2023-02-01T11:49:48;11.57;;;3.37;;
13959;SDS011;7052;51.050;3.716;2023-02-01T11:52:17;6.40;;;2.50;;
13959;SDS011;7052;51.050;3.716;2023-02-01T11:55:00;10.13;;;3.73;;
13959;SDS011;7052;51.050;3.716;2023-02-01T11:57:48;12.67;;;3.47;;
13959;SDS011;7052;51.050;3.716;2023-02-01T12:00:29;10.90;;;3.27;;
13959;SDS011;7052;51.050;3.716;2023-02-01T12:03:18;13.37;;;3.80;;
13959;SDS011;7052;51.050;3.716;2023-02-01T12:06:13;10.67;;;3.33;;
13959;SDS011;7052;51.050;3.716;2023-02-01T12:08:53;6.80;;;2.97;;
13959;SDS011;7052;51.050;3.716;2023-02-01T12:11:46;8.33;;;3.13;;
13959;SDS011;7052;51.050;3.716;2023-02-01T12:14:23;7.23;;;2.90;;
13959;SDS011;7052;51.050;3.716;2023-02-01T12:17:13;12.20;;;2.97;;
13959;SDS011;7052;51.050;3.716;2023-02-01T12:20:10;11.40;;;2.97;;
13959;SDS011;7052;51.050;3.716;2023-02-01T12:25:57;11.67;;;3.20;;
13959;SDS011;7052;51.050;3.716;2023-02-01T12:31:40;10.40;;;2.90;;
13959;SDS011;7052;51.050;3.716;2023-02-01T12:34:24;14.20;;;2.90;;
13959;SDS011;7052;51.050;3.716;2023-02-01T12:37:26;9.20;;;2.60;;
13959;SDS011;7052;51.050;3.716;2023-02-01T12:40:19;10.57;;;2.50;;
13959;SDS011;7052;51.050;3.716;2023-02-01T12:42:56;9.40;;;2.80;;
13959;SDS011;7052;51.050;3.716;2023-02-01T12:45:41;13.60;;;3.63;;
13959;SDS011;7052;51.050;3.716;2023-02-01T12:48:18;18.37;;;3.97;;
13959;SDS011;7052;51.050;3.716;2023-02-01T12:50:53;13.73;;;3.40;;
13959;SDS011;7052;51.050;3.716;2023-02-01T12:53:26;9.93;;;2.93;;
13959;SDS011;7052;51.050;3.716;2023-02-01T12:55:57;8.07;;;2.50;;
13959;SDS011;7052;51.050;3.716;2023-02-01T12:58:32;6.37;;;2.33;;
13959;SDS011;7052;51.050;3.716;2023-02-01T13:01:12;8.17;;;2.60;;
13959;SDS011;7052;51.050;3.716;2023-02-01T13:03:57;8.03;;;2.83;;
13959;SDS011;7052;51.050;3.716;2023-02-01T13:06:33;8.27;;;3.00;;
13959;SDS011;7052;51.050;3.716;2023-02-01T13:09:06;10.87;;;3.27;;
13959;SDS011;7052;51.050;3.716;2023-02-01T13:11:42;11.33;;;2.97;;
13959;SDS011;7052;51.050;3.716;2023-02-01T13:14:14;7.90;;;2.70;;
13959;SDS011;7052;51.050;3.716;2023-02-01T13:16:50;6.97;;;2.47;;
13959;SDS011;7052;51.050;3.716;2023-02-01T13:19:20;17.10;;;4.23;;
13959;SDS011;7052;51.050;3.716;2023-02-01T13:21:53;9.40;;;2.93;;
13959;SDS011;7052;51.050;3.716;2023-02-01T13:24:30;7.70;;;2.67;;
13959;SDS011;7052;51.050;3.716;2023-02-01T13:27:03;7.53;;;2.10;;
13959;SDS011;7052;51.050;3.716;2023-02-01T13:29:31;10.93;;;3.30;;
13959;SDS011;7052;51.050;3.716;2023-02-01T13:35:03;8.27;;;2.97;;
13959;SDS011;7052;51.050;3.716;2023-02-01T13:40:51;11.67;;;3.07;;
13959;SDS011;7052;51.050;3.716;2023-02-01T13:43:37;10.50;;;2.80;;
13959;SDS011;7052;51.050;3.716;2023-02-01T13:46:07;6.03;;;2.53;;
13959;SDS011;7052;51.050;3.716;2023-02-01T13:48:41;11.63;;;2.80;;
13959;SDS011;7052;51.050;3.716;2023-02-01T13:51:14;7.70;;;2.93;;
13959;SDS011;7052;51.050;3.716;2023-02-01T13:53:47;9.13;;;2.93;;
13959;SDS011;7052;51.050;3.716;2023-02-01T13:56:17;16.17;;;5.87;;
13959;SDS011;7052;51.050;3.716;2023-02-01T13:58:46;9.77;;;2.43;;
13959;SDS011;7052;51.050;3.716;2023-02-01T14:07:18;8.90;;;2.90;;
13959;SDS011;7052;51.050;3.716;2023-02-01T14:09:46;5.20;;;2.23;;
13959;SDS011;7052;51.050;3.716;2023-02-01T14:15:22;14.70;;;4.10;;
13959;SDS011;7052;51.050;3.716;2023-02-01T14:17:52;9.70;;;2.77;;
13959;SDS011;7052;51.050;3.716;2023-02-01T14:23:22;11.77;;;3.57;;
13959;SDS011;7052;51.050;3.716;2023-02-01T14:26:18;5.97;;;2.40;;
13959;SDS011;7052;51.050;3.716;2023-02-01T14:29:00;10.97;;;3.27;;
13959;SDS011;7052;51.050;3.716;2023-02-01T14:31:33;11.47;;;3.27;;
13959;SDS011;7052;51.050;3.716;2023-02-01T14:34:14;8.87;;;2.80;;
13959;SDS011;7052;51.050;3.716;2023-02-01T14:36:49;15.33;;;3.60;;
13959;SDS011;7052;51.050;3.716;2023-02-01T14:39:24;10.47;;;3.53;;
13959;SDS011;7052;51.050;3.716;2023-02-01T14:42:05;13.23;;;3.20;;
13959;SDS011;7052;51.050;3.716;2023-02-01T14:45:45;12.23;;;3.80;;
13959;SDS011;7052;51.050;3.716;2023-02-01T14:51:10;21.47;;;4.67;;
13959;SDS011;7052;51.050;3.716;2023-02-01T14:53:40;13.33;;;3.40;;
13959;SDS011;7052;51.050;3.716;2023-02-01T14:56:09;10.73;;;3.30;;
13959;SDS011;7052;51.050;3.716;2023-02-01T14:58:41;9.53;;;3.53;;
13959;SDS011;7052;51.050;3.716;2023-02-01T15:01:16;11.33;;;3.50;;
13959;SDS011;7052;51.050;3.716;2023-02-01T15:03:54;19.20;;;4.37;;
13959;SDS011;7052;51.050;3.716;2023-02-01T15:06:32;15.83;;;3.87;;
13959;SDS011;7052;51.050;3.716;2023-02-01T15:09:04;12.20;;;3.77;;
13959;SDS011;7052;51.050;3.716;2023-02-01T15:11:55;11.70;;;3.47;;
13959;SDS011;7052;51.050;3.716;2023-02-01T15:14:24;10.83;;;2.80;;
13959;SDS011;7052;51.050;3.716;2023-02-01T15:16:52;14.10;;;4.00;;
13959;SDS011;7052;51.050;3.716;2023-02-01T15:19:20;17.10;;;4.27;;
13959;SDS011;7052;51.050;3.716;2023-02-01T15:21:53;11.73;;;3.40;;
13959;SDS011;7052;51.050;3.716;2023-02-01T15:24:22;18.50;;;4.67;;
13959;SDS011;7052;51.050;3.716;2023-02-01T15:26:51;10.83;;;3.23;;
13959;SDS011;7052;51.050;3.716;2023-02-01T15:29:20;12.10;;;3.43;;
13959;SDS011;7052;51.050;3.716;2023-02-01T15:31:51;9.33;;;3.73;;
13959;SDS011;7052;51.050;3.716;2023-02-01T15:34:19;12.30;;;3.70;;
13959;SDS011;7052;51.050;3.716;2023-02-01T15:36:49;14.17;;;3.80;;
13959;SDS011;7052;51.050;3.716;2023-02-01T15:39:22;9.83;;;3.23;;
13959;SDS011;7052;51.050;3.716;2023-02-01T15:41:52;10.53;;;3.67;;
13959;SDS011;7052;51.050;3.716;2023-02-01T15:44:28;12.63;;;3.90;;
13959;SDS011;7052;51.050;3.716;2023-02-01T15:47:05;15.07;;;4.00;;
13959;SDS011;7052;51.050;3.716;2023-02-01T15:49:36;10.10;;;3.90;;
13959;SDS011;7052;51.050;3.716;2023-02-01T15:52:13;14.63;;;3.20;;
13959;SDS011;7052;51.050;3.716;2023-02-01T15:57:47;10.43;;;3.60;;
13959;SDS011;7052;51.050;3.716;2023-02-01T16:00:19;11.10;;;3.13;;
13959;SDS011;7052;51.050;3.716;2023-02-01T16:02:51;12.47;;;3.80;;
13959;SDS011;7052;51.050;3.716;2023-02-01T16:05:32;13.17;;;4.20;;
13959;SDS011;7052;51.050;3.716;2023-02-01T16:08:12;14.00;;;3.83;;